This is the latest recevied weather packets stored in our database for station/object WMKN. If no packets are shown the sender has not sent any weather packets the latest 10 day(s).
| Time | Temp. | Humidity | Pressure | Rain* | Wind** | Luminosity | Snow |
|---|---|---|---|---|---|---|---|
| 1777979437 | 30.56° C | 70% | 1006 hPa | - | - | - | - |
| 1777975838 | 32.78° C | 62% | 1006 hPa | - | - | - | - |
| 1777972244 | 32.78° C | 62% | 1005 hPa | - | - | - | - |
| 1777968636 | 32.78° C | 62% | 1006 hPa | - | - | - | - |
| 1777965032 | 33.89° C | 63% | 1007 hPa | - | - | - | - |
| 1777961437 | 33.89° C | 59% | 1008 hPa | - | - | - | - |
| 1777957843 | 32.78° C | 62% | 1009 hPa | - | - | - | - |
| 1777954235 | 32.78° C | 62% | 1009 hPa | - | - | - | - |
| 1777943434 | 27.78° C | 83% | 1009 hPa | - | - | - | - |
| 1777939846 | 26.67° C | 88% | 1009 hPa | - | - | - | - |
| 1777918239 | 27.78° C | 83% | 1009 hPa | - | - | - | - |
| 1777911035 | 27.78° C | 78% | 1010 hPa | - | - | - | - |
| 1777896634 | 30.56° C | 70% | 1008 hPa | - | - | - | - |
| 1777893043 | 30.56° C | 70% | 1007 hPa | - | - | - | - |
| 1777889434 | 31.67° C | 70% | 1007 hPa | - | - | - | - |
| 1777885832 | 32.78° C | 66% | 1007 hPa | - | - | - | - |
| 1777882232 | 32.78° C | 66% | 1007 hPa | - | - | - | - |
| 1777878642 | 33.89° C | 59% | 1008 hPa | - | - | - | - |
| 1777875032 | 32.78° C | 66% | 1009 hPa | - | - | - | - |
| 1777871432 | 33.89° C | 59% | 1010 hPa | - | - | - | - |
| 1777867831 | 33.89° C | 59% | 1011 hPa | - | - | - | - |
| 1777864241 | 32.78° C | 62% | 1011 hPa | - | - | - | - |
| 1777846243 | 25.56° C | 94% | 1008 hPa | - | - | - | - |
| 1777842633 | 26.67° C | 88% | 1008 hPa | - | - | - | - |
| 1777839031 | 26.67° C | 88% | 1008 hPa | - | - | - | - |
* Rain since midnight (hover to see other rain measurements)
** Current wind speed in m/s (hover to see current wind gust speed)